Time;durP1;ratioP1;P1;durP2;ratioP2;P2;SDS_P1;SDS_P2;PMS_P1;PMS_P2;Temp;Humidity;BMP_temperature;BMP_pressure;BME280_temperature;BME280_humidity;BME280_pressure;Samples;Min_cycle;Max_cycle;Signal;HPM_P1;HPM_P2
2021/11/20 00:01:08;;;;;;;27.05;18.50;;;12.10;99.90;;;;;;4947124;28;20493;-48
2021/11/20 00:03:38;;;;;;;28.33;18.08;;;12.20;99.90;;;;;;4952766;28;20038;-49
2021/11/20 00:06:05;;;;;;;27.60;18.60;;;12.20;99.90;;;;;;4951299;29;20050;-50
2021/11/20 00:08:31;;;;;;;29.63;19.00;;;12.20;99.90;;;;;;4953362;29;20118;-49
2021/11/20 00:11:00;;;;;;;26.40;18.02;;;12.20;99.90;;;;;;4969446;28;20074;-48
2021/11/20 00:13:26;;;;;;;29.17;19.73;;;12.20;99.90;;;;;;4992972;28;20074;-49
2021/11/20 00:15:55;;;;;;;28.85;19.02;;;12.20;99.90;;;;;;4973414;28;20034;-48
2021/11/20 00:18:22;;;;;;;28.75;17.08;;;12.20;99.90;;;;;;4972854;28;20085;-49
2021/11/20 00:20:53;;;;;;;28.05;18.52;;;12.10;99.90;;;;;;4972838;28;20538;-49
2021/11/20 00:23:26;;;;;;;32.40;21.90;;;12.10;99.90;;;;;;4978732;28;20039;-48
2021/11/20 00:25:55;;;;;;;32.53;20.70;;;12.10;99.90;;;;;;4976412;28;20526;-48
2021/11/20 00:28:29;;;;;;;30.58;20.63;;;12.10;99.90;;;;;;4972916;28;20039;-49
2021/11/20 00:31:05;;;;;;;33.20;20.35;;;12.10;99.90;;;;;;4975918;28;20478;-49
2021/11/20 00:33:33;;;;;;;32.08;19.35;;;12.20;99.90;;;;;;4989526;28;20044;-48
2021/11/20 00:36:01;;;;;;;30.35;20.63;;;12.10;99.90;;;;;;5006319;28;20078;-48
2021/11/20 00:38:28;;;;;;;26.58;17.75;;;12.20;99.90;;;;;;4998083;28;20034;-48
2021/11/20 00:40:58;;;;;;;28.58;18.83;;;12.20;99.90;;;;;;4990559;28;20049;-48
2021/11/20 00:43:25;;;;;;;25.63;17.45;;;12.20;99.90;;;;;;4988272;28;20034;-48
2021/11/20 00:45:52;;;;;;;33.30;21.58;;;12.10;99.90;;;;;;4994016;28;20026;-48
2021/11/20 00:48:20;;;;;;;28.60;18.45;;;12.10;99.90;;;;;;4993014;28;20995;-48
2021/11/20 00:50:50;;;;;;;37.65;21.20;;;12.00;99.90;;;;;;4991733;28;20550;-49
2021/11/20 00:53:16;;;;;;;27.40;17.17;;;12.00;99.90;;;;;;4988944;28;20101;-49
2021/11/20 00:55:43;;;;;;;29.45;17.83;;;12.00;99.90;;;;;;4993032;28;20120;-49
2021/11/20 00:58:09;;;;;;;30.20;19.08;;;11.80;99.90;;;;;;4985323;28;20039;-48
2021/11/20 01:00:41;;;;;;;26.00;17.65;;;11.80;99.90;;;;;;4992221;28;20037;-48
2021/11/20 01:03:08;;;;;;;;;;;11.70;99.90;;;;;;4989747;28;20554;-48
2021/11/20 01:05:34;;;;;;;25.35;15.50;;;11.70;99.90;;;;;;4992823;28;19909;-48
2021/11/20 01:08:00;;;;;;;31.55;19.75;;;11.60;99.90;;;;;;4988554;28;20386;-48
2021/11/20 01:10:30;;;;;;;25.30;16.55;;;11.60;99.90;;;;;;4994254;28;20045;-48
2021/11/20 01:12:57;;;;;;;24.52;16.95;;;11.60;99.90;;;;;;4990494;28;20035;-48
2021/11/20 01:15:30;;;;;;;23.60;16.23;;;11.60;99.90;;;;;;4991175;28;20081;-48
2021/11/20 01:17:56;;;;;;;23.98;16.65;;;11.60;99.90;;;;;;4992572;28;20401;-48
2021/11/20 01:20:22;;;;;;;28.05;18.20;;;11.50;99.90;;;;;;4990902;28;20036;-48
2021/11/20 01:22:47;;;;;;;22.67;15.85;;;11.60;99.90;;;;;;4993166;28;20026;-48
2021/11/20 01:25:14;;;;;;;24.58;16.95;;;11.50;99.90;;;;;;4993101;28;20129;-48
2021/11/20 01:27:40;;;;;;;24.65;18.88;;;11.50;99.90;;;;;;4990672;28;20058;-48
2021/11/20 01:30:08;;;;;;;25.55;17.80;;;11.50;99.90;;;;;;4988806;28;20168;-49
2021/11/20 01:32:34;;;;;;;25.08;16.83;;;11.60;99.90;;;;;;4990506;28;20676;-48
2021/11/20 01:35:00;;;;;;;24.38;15.55;;;11.60;99.90;;;;;;4990691;28;20081;-48
2021/11/20 01:37:26;;;;;;;27.70;17.20;;;11.60;99.90;;;;;;4993996;28;20482;-48
2021/11/20 01:39:53;;;;;;;26.30;19.17;;;11.60;99.90;;;;;;4991960;28;20037;-48
2021/11/20 01:42:31;;;;;;;23.98;16.88;;;11.60;99.90;;;;;;4990293;28;20065;-49
2021/11/20 01:45:19;;;;;;;26.10;17.58;;;11.60;99.90;;;;;;4992493;28;20034;-48
2021/11/20 01:48:02;;;;;;;24.40;16.10;;;11.60;99.90;;;;;;4990898;28;20041;-48
2021/11/20 01:50:36;;;;;;;25.60;16.20;;;11.60;99.90;;;;;;4990094;28;20087;-48
2021/11/20 01:53:31;;;;;;;23.15;15.23;;;11.50;99.90;;;;;;4991325;28;20027;-48
2021/11/20 01:56:00;;;;;;;25.17;17.95;;;11.60;99.90;;;;;;4985695;28;20035;-48
2021/11/20 01:58:43;;;;;;;37.05;29.25;;;11.50;99.90;;;;;;4991591;28;20026;-48
2021/11/20 02:01:33;;;;;;;38.40;31.65;;;11.50;99.90;;;;;;4989863;28;20054;-49
2021/11/20 02:04:18;;;;;;;41.90;31.83;;;11.50;99.90;;;;;;4990289;28;20093;-48
2021/11/20 02:06:53;;;;;;;32.97;26.90;;;11.40;99.90;;;;;;4988707;28;20038;-48
2021/11/20 02:09:47;;;;;;;37.20;26.92;;;11.40;99.90;;;;;;4991359;28;20027;-49
2021/11/20 02:12:20;;;;;;;34.83;27.58;;;11.40;99.90;;;;;;4989829;28;20121;-48
2021/11/20 02:14:47;;;;;;;27.02;21.67;;;11.40;99.90;;;;;;5005103;28;20209;-49
2021/11/20 02:17:17;;;;;;;29.73;21.02;;;11.40;99.90;;;;;;4991577;28;20061;-49
2021/11/20 02:19:52;;;;;;;27.33;19.75;;;11.30;99.90;;;;;;4990931;28;20026;-48
2021/11/20 02:22:35;;;;;;;27.10;21.08;;;11.40;99.90;;;;;;5005149;28;20050;-49
2021/11/20 02:25:01;;;;;;;32.25;24.13;;;11.40;99.90;;;;;;4984662;28;20030;-49
2021/11/20 02:27:28;;;;;;;30.95;24.20;;;11.40;99.90;;;;;;4991861;28;20425;-49
2021/11/20 02:30:37;;;;;;;26.90;18.40;;;11.40;99.90;;;;;;4986742;28;20034;-49
2021/11/20 02:33:12;;;;;;;26.15;19.60;;;11.40;99.90;;;;;;4996586;28;20033;-49
2021/11/20 02:35:40;;;;;;;23.25;15.57;;;11.30;99.90;;;;;;4990126;28;20042;-49
2021/11/20 02:38:11;;;;;;;25.23;16.15;;;11.40;99.90;;;;;;4992860;28;20038;-48
2021/11/20 02:40:38;;;;;;;24.08;16.42;;;11.50;99.90;;;;;;4990332;28;20057;-48
2021/11/20 02:43:05;;;;;;;22.65;15.98;;;11.50;99.90;;;;;;4994671;28;20042;-49
2021/11/20 02:45:43;;;;;;;21.90;14.82;;;11.60;99.90;;;;;;4991947;28;20052;-49
2021/11/20 02:48:10;;;;;;;22.65;16.13;;;11.60;99.90;;;;;;4988820;28;20038;-48
2021/11/20 02:50:41;;;;;;;20.35;15.77;;;11.70;99.90;;;;;;4991810;28;20098;-49
2021/11/20 02:53:16;;;;;;;25.63;16.17;;;11.70;99.90;;;;;;4977913;28;20551;-49
2021/11/20 02:55:48;;;;;;;23.85;15.85;;;11.70;99.90;;;;;;4991491;28;20022;-49
2021/11/20 02:58:16;;;;;;;23.33;15.60;;;11.70;99.90;;;;;;4993094;28;20030;-48
2021/11/20 03:00:43;;;;;;;21.40;15.40;;;11.70;99.90;;;;;;4955097;28;20088;-49
2021/11/20 03:03:09;;;;;;;24.35;15.88;;;11.70;99.90;;;;;;4991380;28;20378;-49
2021/11/20 03:05:35;;;;;;;23.10;16.23;;;11.60;99.90;;;;;;4994460;28;20034;-48
2021/11/20 03:08:01;;;;;;;21.90;15.50;;;11.60;99.90;;;;;;4989083;28;20070;-48
2021/11/20 03:10:27;;;;;;;20.02;15.77;;;11.50;99.90;;;;;;5021510;28;20045;-49
2021/11/20 03:12:53;;;;;;;23.05;16.13;;;11.50;99.90;;;;;;5001952;28;20168;-49
2021/11/20 03:15:18;;;;;;;21.45;15.07;;;11.50;99.90;;;;;;5024186;28;20395;-49
2021/11/20 03:17:45;;;;;;;24.30;16.13;;;11.50;99.90;;;;;;4992666;28;20061;-49
2021/11/20 03:20:14;;;;;;;20.77;13.88;;;11.40;99.90;;;;;;5005220;28;20129;-49
2021/11/20 03:22:53;;;;;;;24.05;15.35;;;11.40;99.90;;;;;;4996215;28;20045;-51
2021/11/20 03:25:20;;;;;;;24.05;15.98;;;11.30;99.90;;;;;;4995166;28;20112;-48
2021/11/20 03:27:46;;;;;;;27.55;16.65;;;11.30;99.90;;;;;;4994662;28;20058;-48
2021/11/20 03:30:13;;;;;;;23.20;15.20;;;11.30;99.90;;;;;;4993195;28;20058;-48
2021/11/20 03:32:39;;;;;;;23.67;16.13;;;11.30;99.90;;;;;;5031346;28;20058;-49
2021/11/20 03:35:06;;;;;;;22.58;15.43;;;11.30;99.90;;;;;;4966949;28;20033;-49
2021/11/20 03:37:33;;;;;;;25.55;17.40;;;11.40;99.90;;;;;;5030814;28;20037;-50
2021/11/20 03:39:59;;;;;;;37.17;27.55;;;11.40;99.90;;;;;;4999958;28;20198;-49
2021/11/20 03:42:24;;;;;;;25.60;19.85;;;11.40;99.90;;;;;;4949238;28;20529;-49
2021/11/20 03:44:50;;;;;;;23.33;17.73;;;11.40;99.90;;;;;;5029551;28;20033;-48
2021/11/20 03:47:17;;;;;;;23.30;15.90;;;11.40;99.90;;;;;;5027781;28;20040;-49
2021/11/20 03:49:44;;;;;;;21.48;14.90;;;11.40;99.90;;;;;;5029930;28;20140;-49
2021/11/20 03:52:12;;;;;;;20.52;13.90;;;11.40;99.90;;;;;;5012921;28;20156;-49
2021/11/20 03:54:38;;;;;;;23.90;14.85;;;11.40;99.90;;;;;;5027615;28;20057;-48
2021/11/20 03:57:05;;;;;;;19.83;13.73;;;11.30;99.90;;;;;;5031692;28;20501;-50
2021/11/20 03:59:31;;;;;;;23.98;14.55;;;11.30;99.90;;;;;;5010427;28;20041;-49
2021/11/20 04:01:59;;;;;;;19.90;13.88;;;11.20;99.90;;;;;;4996199;28;20049;-49
2021/11/20 04:04:26;;;;;;;23.63;14.82;;;11.20;99.90;;;;;;4998888;28;20096;-49
2021/11/20 04:06:52;;;;;;;24.48;16.92;;;11.20;99.90;;;;;;4995690;28;20034;-49
2021/11/20 04:09:18;;;;;;;37.50;23.98;;;11.20;99.90;;;;;;5009013;28;20387;-49
2021/11/20 04:11:47;;;;;;;22.10;15.13;;;11.20;99.90;;;;;;4992133;28;20042;-48
2021/11/20 04:14:14;;;;;;;49.25;31.38;;;11.10;99.90;;;;;;5008375;28;20498;-49
2021/11/20 04:16:41;;;;;;;33.65;21.85;;;11.10;99.90;;;;;;5012135;28;20225;-49
2021/11/20 04:19:08;;;;;;;35.63;23.58;;;11.20;99.90;;;;;;5012018;28;20033;-49
2021/11/20 04:21:35;;;;;;;24.73;16.15;;;11.20;99.90;;;;;;5011687;28;20422;-49
2021/11/20 04:24:01;;;;;;;25.55;16.25;;;11.20;99.90;;;;;;5011761;28;20030;-48
2021/11/20 04:26:28;;;;;;;34.40;22.80;;;11.20;99.90;;;;;;5011179;28;20116;-49
2021/11/20 04:28:54;;;;;;;29.60;18.85;;;11.20;99.90;;;;;;5011918;28;20034;-48
2021/11/20 04:31:21;;;;;;;24.05;17.23;;;11.20;99.90;;;;;;5011566;28;20042;-49
2021/11/20 04:33:49;;;;;;;29.88;20.42;;;11.20;99.90;;;;;;4995172;28;20057;-48
2021/11/20 04:36:15;;;;;;;25.33;18.13;;;11.30;99.90;;;;;;4962772;28;20037;-48
2021/11/20 04:38:41;;;;;;;23.17;17.98;;;11.20;99.90;;;;;;5011760;28;20033;-48
2021/11/20 04:41:07;;;;;;;24.38;16.48;;;11.20;99.90;;;;;;5011576;28;20044;-48
2021/11/20 04:43:34;;;;;;;26.85;18.50;;;11.20;99.90;;;;;;4962406;28;20567;-48
2021/11/20 04:46:00;;;;;;;23.38;16.52;;;11.20;99.90;;;;;;5011814;28;20034;-49
2021/11/20 04:48:26;;;;;;;24.60;15.63;;;11.20;99.90;;;;;;4991959;28;20073;-48
2021/11/20 04:50:54;;;;;;;22.92;15.80;;;11.10;99.90;;;;;;4990272;28;20086;-49
2021/11/20 04:53:20;;;;;;;20.75;13.65;;;11.00;99.90;;;;;;4991349;28;20026;-48
2021/11/20 04:55:46;;;;;;;19.90;13.82;;;11.00;99.90;;;;;;5012652;28;20045;-48
2021/11/20 04:58:13;;;;;;;24.42;15.27;;;11.00;99.90;;;;;;4987948;28;20483;-47
2021/11/20 05:00:43;;;;;;;19.85;13.60;;;11.00;99.90;;;;;;4990913;28;20089;-48
2021/11/20 05:03:09;;;;;;;18.40;13.50;;;10.90;99.90;;;;;;4988924;28;20039;-48
2021/11/20 05:05:42;;;;;;;20.58;13.90;;;10.90;99.90;;;;;;5007466;28;20043;-49
2021/11/20 05:08:08;;;;;;;21.10;14.50;;;10.90;99.90;;;;;;4996184;28;20047;-48
2021/11/20 05:10:35;;;;;;;22.38;15.07;;;10.90;99.90;;;;;;4992947;28;20504;-48
2021/11/20 05:13:02;;;;;;;16.85;11.98;;;10.80;99.90;;;;;;4987775;28;20065;-48
2021/11/20 05:15:30;;;;;;;19.45;12.25;;;10.80;99.90;;;;;;4993082;28;20039;-49
2021/11/20 05:17:56;;;;;;;20.63;14.32;;;10.70;99.90;;;;;;4989841;28;20037;-49
2021/11/20 05:20:21;;;;;;;24.10;14.98;;;10.70;99.90;;;;;;4989346;28;20035;-48
2021/11/20 05:22:47;;;;;;;20.35;14.32;;;10.70;99.90;;;;;;5004434;28;20437;-48
2021/11/20 05:25:14;;;;;;;24.17;15.10;;;10.70;99.90;;;;;;5013960;28;20070;-48
2021/11/20 05:27:42;;;;;;;24.05;16.38;;;10.70;99.90;;;;;;5002752;28;20030;-48
2021/11/20 05:30:18;;;;;;;19.75;14.73;;;10.60;99.90;;;;;;5003324;28;20076;-48
2021/11/20 05:32:46;;;;;;;21.48;14.90;;;10.60;99.90;;;;;;5031154;28;20054;-49
2021/11/20 05:35:15;;;;;;;22.80;15.70;;;10.50;99.90;;;;;;5019573;28;20519;-48
2021/11/20 05:37:41;;;;;;;19.75;15.05;;;10.50;99.90;;;;;;5015603;28;20057;-48
2021/11/20 05:40:13;;;;;;;21.27;14.73;;;10.50;99.90;;;;;;5014049;28;20065;-48
2021/11/20 05:42:39;;;;;;;22.58;15.52;;;10.50;99.90;;;;;;4997954;28;20145;-51
2021/11/20 05:45:06;;;;;;;22.15;15.32;;;10.40;99.90;;;;;;5015227;28;20108;-49
2021/11/20 05:47:32;;;;;;;20.73;15.23;;;10.30;99.90;;;;;;4994052;28;20038;-48
2021/11/20 05:49:58;;;;;;;22.60;15.82;;;10.40;99.90;;;;;;5011093;28;20053;-49
2021/11/20 05:52:24;;;;;;;20.60;14.80;;;10.50;99.90;;;;;;4998359;28;20136;-49
2021/11/20 05:54:50;;;;;;;23.02;16.02;;;10.50;99.90;;;;;;5010462;28;20422;-48
2021/11/20 05:57:16;;;;;;;26.92;18.35;;;10.50;99.90;;;;;;5010681;28;20041;-48
2021/11/20 05:59:42;;;;;;;34.33;25.35;;;10.60;99.90;;;;;;5011113;28;20037;-48
2021/11/20 06:02:09;;;;;;;24.27;17.88;;;10.60;99.90;;;;;;5010670;28;20045;-48
2021/11/20 06:04:35;;;;;;;29.05;18.92;;;10.60;99.90;;;;;;5010956;28;20042;-48
2021/11/20 06:07:01;;;;;;;26.15;20.02;;;10.70;99.90;;;;;;4994337;28;20030;-48
2021/11/20 06:09:30;;;;;;;25.13;18.08;;;10.70;99.90;;;;;;4987996;28;20077;-51
2021/11/20 06:11:57;;;;;;;24.63;16.02;;;10.80;99.90;;;;;;4980983;28;20494;-51
2021/11/20 06:14:23;;;;;;;31.35;19.35;;;10.70;99.90;;;;;;4993567;28;20088;-50
2021/11/20 06:16:49;;;;;;;24.50;17.52;;;10.70;99.90;;;;;;4992677;28;21124;-49
2021/11/20 06:19:15;;;;;;;28.00;19.00;;;10.90;99.90;;;;;;4991298;28;20082;-49
2021/11/20 06:21:41;;;;;;;30.92;19.88;;;12.10;99.90;;;;;;4994200;28;20073;-49
2021/11/20 06:24:07;;;;;;;23.65;15.73;;;13.70;99.90;;;;;;4993185;28;20034;-50
2021/11/20 06:26:34;;;;;;;31.70;18.73;;;;;;;;;;4990807;28;20046;-50
2021/11/20 06:29:01;;;;;;;32.03;19.95;;;16.70;99.90;;;;;;4993437;28;20084;-48
2021/11/20 06:31:27;;;;;;;30.67;20.88;;;;;;;;;;4993156;28;20502;-47
2021/11/20 06:33:54;;;;;;;33.97;20.95;;;;;;;;;;4990979;28;20038;-47
2021/11/20 06:36:22;;;;;;;16.15;12.43;;;20.00;96.30;;;;;;4990823;28;20074;-47
2021/11/20 06:38:48;;;;;;;19.13;13.40;;;20.90;94.00;;;;;;4990964;28;20026;-48
2021/11/20 06:41:14;;;;;;;19.75;13.18;;;21.60;92.00;;;;;;4990799;28;20046;-47
2021/11/20 06:43:40;;;;;;;18.95;12.93;;;22.50;92.00;;;;;;4942642;28;20461;-47
2021/11/20 06:46:10;;;;;;;20.15;13.18;;;23.40;90.90;;;;;;4957515;28;20402;-48
2021/11/20 06:48:36;;;;;;;19.60;13.50;;;;;;;;;;4990505;28;20034;-47
2021/11/20 06:51:04;;;;;;;18.83;14.00;;;24.60;88.60;;;;;;4988921;28;20058;-48
2021/11/20 06:53:31;;;;;;;23.08;17.30;;;;;;;;;;4994785;28;20022;-48
2021/11/20 06:55:57;;;;;;;22.00;16.20;;;;;;;;;;4973948;28;20461;-48
2021/11/20 07:01:03;;;;;;;15.75;12.43;;;25.90;81.60;;;;;;5000773;28;20348;-48
2021/11/20 07:03:33;;;;;;;21.75;16.38;;;26.10;79.30;;;;;;5002087;28;20041;-48
2021/11/20 07:06:03;;;;;;;24.50;18.75;;;25.90;78.60;;;;;;4996406;28;20572;-48
2021/11/20 07:08:29;;;;;;;22.95;16.83;;;;;;;;;;4995367;28;20080;-48
2021/11/20 07:10:56;;;;;;;15.73;13.02;;;;;;;;;;4995246;28;20042;-53
2021/11/20 07:13:23;;;;;;;19.15;12.23;;;27.00;75.30;;;;;;5005782;28;20038;-50
2021/11/20 07:15:50;;;;;;;15.00;11.07;;;26.80;75.30;;;;;;5006137;28;20047;-48
2021/11/20 07:18:17;;;;;;;16.35;12.52;;;;;;;;;;5012034;28;20068;-47
2021/11/20 07:20:44;;;;;;;18.08;11.70;;;27.20;73.60;;;;;;4996183;28;20042;-50
2021/11/20 07:23:11;;;;;;;15.30;11.50;;;27.30;73.50;;;;;;5000634;28;20129;-50
2021/11/20 07:25:38;;;;;;;16.90;11.80;;;26.90;73.50;;;;;;4983378;28;20126;-51
2021/11/20 07:28:05;;;;;;;15.23;11.80;;;26.40;73.90;;;;;;4989545;28;20038;-48
2021/11/20 07:30:35;;;;;;;14.77;11.90;;;26.20;74.00;;;;;;4970648;28;20089;-49
2021/11/20 07:33:01;;;;;;;13.35;11.95;;;26.30;74.40;;;;;;4980019;28;20363;-49
2021/11/20 07:35:30;;;;;;;16.35;14.40;;;26.50;73.70;;;;;;4990322;28;20035;-48
2021/11/20 07:37:56;;;;;;;13.95;10.73;;;26.70;73.20;;;;;;4986113;28;20042;-50
2021/11/20 07:40:26;;;;;;;13.27;11.23;;;25.30;73.60;;;;;;4987967;28;20132;-49
2021/11/20 07:42:51;;;;;;;18.35;16.92;;;26.20;74.50;;;;;;4988450;28;20031;-50
2021/11/20 07:45:19;;;;;;;42.65;39.88;;;26.00;74.10;;;;;;4955957;28;20045;-50
2021/11/20 07:47:44;;;;;;;50.38;46.67;;;26.40;73.60;;;;;;4988243;28;20116;-51
2021/11/20 07:50:11;;;;;;;25.95;23.75;;;26.30;73.30;;;;;;4973399;28;20143;-49
2021/11/20 07:52:37;;;;;;;24.92;22.55;;;25.60;73.00;;;;;;4988179;28;20027;-45
2021/11/20 07:55:05;;;;;;;14.63;13.07;;;25.50;74.30;;;;;;4988373;28;20557;-47
2021/11/20 07:57:31;;;;;;;17.25;15.40;;;25.60;74.30;;;;;;4988667;28;20034;-51
2021/11/20 07:59:57;;;;;;;13.45;12.07;;;25.30;73.20;;;;;;4991887;28;20038;-51
2021/11/20 08:02:23;;;;;;;12.52;10.75;;;25.40;74.20;;;;;;4990104;28;20035;-51
2021/11/20 08:04:48;;;;;;;25.58;23.63;;;24.70;74.30;;;;;;4996754;28;20045;-51
2021/11/20 08:07:14;;;;;;;18.05;14.25;;;24.80;74.10;;;;;;4989275;28;20061;-51
2021/11/20 08:09:40;;;;;;;20.40;18.50;;;24.10;75.10;;;;;;4992057;28;20038;-51
2021/11/20 08:12:06;;;;;;;18.25;13.07;;;23.70;76.00;;;;;;4993696;28;20030;-51
2021/11/20 08:14:32;;;;;;;21.27;18.23;;;23.90;76.20;;;;;;5016965;28;20085;-51
2021/11/20 08:16:58;;;;;;;19.83;15.38;;;23.90;74.90;;;;;;4991939;28;20034;-53
2021/11/20 08:19:24;;;;;;;21.77;16.30;;;24.60;75.20;;;;;;4989994;28;20035;-50
2021/11/20 08:21:50;;;;;;;17.55;14.48;;;25.00;74.20;;;;;;4994456;28;20450;-50
2021/11/20 08:24:16;;;;;;;19.98;16.60;;;24.90;74.50;;;;;;4983473;28;20403;-50
2021/11/20 08:26:43;;;;;;;26.40;24.00;;;25.40;75.50;;;;;;4989092;28;20030;-51
2021/11/20 08:29:22;;;;;;;19.85;17.13;;;25.30;74.80;;;;;;4989167;28;20047;-50
2021/11/20 08:31:49;;;;;;;19.55;17.75;;;25.00;74.80;;;;;;4985869;28;20025;-50
2021/11/20 08:34:16;;;;;;;16.30;14.65;;;25.60;74.20;;;;;;4992709;28;20023;-50
2021/11/20 08:36:44;;;;;;;15.02;13.15;;;25.50;74.10;;;;;;4987630;28;20442;-51
2021/11/20 08:39:14;;;;;;;16.45;14.85;;;25.10;73.80;;;;;;4990184;28;20035;-51
2021/11/20 08:41:45;;;;;;;16.02;14.40;;;24.40;74.60;;;;;;4983064;28;20059;-50
2021/11/20 08:44:11;;;;;;;27.65;25.15;;;24.70;75.20;;;;;;4991144;28;20113;-50
2021/11/20 08:46:39;;;;;;;22.67;20.52;;;25.00;75.00;;;;;;4990599;28;20065;-50
2021/11/20 08:49:05;;;;;;;47.05;42.13;;;25.50;74.90;;;;;;4986116;28;20026;-50
2021/11/20 08:51:32;;;;;;;14.52;13.05;;;24.50;74.90;;;;;;4990490;28;20233;-51
2021/11/20 08:53:59;;;;;;;24.30;17.92;;;25.00;75.40;;;;;;4987428;28;20055;-50
2021/11/20 08:56:25;;;;;;;17.77;16.27;;;25.00;74.70;;;;;;4950948;28;20041;-51
2021/11/20 08:58:52;;;;;;;16.23;14.13;;;24.70;75.60;;;;;;4988829;28;20037;-51
2021/11/20 09:01:25;;;;;;;18.90;17.15;;;24.20;76.10;;;;;;4984755;28;20038;-51
2021/11/20 09:03:54;;;;;;;19.50;17.90;;;24.00;77.10;;;;;;4973717;28;20057;-52
2021/11/20 09:06:45;;;;;;;25.92;24.17;;;22.80;77.60;;;;;;4986534;28;20505;-54
2021/11/20 09:09:26;;;;;;;19.88;18.02;;;24.00;77.30;;;;;;4992785;28;20568;-53
2021/11/20 09:12:06;;;;;;;20.63;18.63;;;23.40;78.50;;;;;;4989973;28;20398;-52
2021/11/20 09:14:38;;;;;;;18.92;17.48;;;22.30;79.20;;;;;;4990058;28;20501;-50
2021/11/20 09:17:05;;;;;;;22.90;21.30;;;23.20;78.10;;;;;;4987471;28;20481;-49
2021/11/20 09:19:33;;;;;;;15.50;14.45;;;23.40;78.40;;;;;;4991881;28;20046;-50
2021/11/20 09:22:02;;;;;;;19.08;17.58;;;23.80;77.70;;;;;;4995053;28;20081;-49
2021/11/20 09:24:32;;;;;;;23.33;21.65;;;23.20;77.80;;;;;;4992218;28;20306;-49
2021/11/20 09:26:58;;;;;;;20.25;18.55;;;22.90;78.50;;;;;;4986598;28;20034;-50
2021/11/20 09:29:26;;;;;;;26.35;24.42;;;23.50;78.50;;;;;;4989977;28;20034;-49
2021/11/20 09:31:53;;;;;;;19.10;17.60;;;23.70;77.30;;;;;;4990688;28;20038;-50
2021/11/20 09:34:19;;;;;;;20.85;19.25;;;23.30;77.60;;;;;;4972426;28;20074;-49
2021/11/20 09:36:49;;;;;;;58.20;54.90;;;22.80;79.00;;;;;;4958191;28;20390;-49
2021/11/20 09:39:18;;;;;;;57.78;54.45;;;23.00;78.50;;;;;;4971467;28;20104;-50
2021/11/20 09:42:08;;;;;;;32.55;30.02;;;22.60;79.30;;;;;;4971080;28;20046;-49
2021/11/20 09:44:38;;;;;;;54.00;50.83;;;22.60;79.30;;;;;;4966906;28;20118;-50
2021/11/20 09:47:20;;;;;;;34.35;31.40;;;23.60;78.70;;;;;;4951642;28;20463;-49
2021/11/20 09:49:49;;;;;;;35.80;26.90;;;23.20;78.10;;;;;;4968585;28;20051;-49
2021/11/20 09:52:15;;;;;;;32.85;30.05;;;23.00;79.00;;;;;;4970374;28;20038;-48
2021/11/20 09:54:43;;;;;;;18.67;17.30;;;21.70;79.60;;;;;;4969279;28;20446;-48
2021/11/20 09:57:12;;;;;;;43.88;41.38;;;21.20;80.80;;;;;;4954210;28;20039;-45
2021/11/20 10:00:14;;;;;;;42.42;39.92;;;21.70;81.90;;;;;;4968860;28;20062;-46
2021/11/20 10:02:53;;;;;;;74.47;71.15;;;22.70;79.70;;;;;;4969386;28;20043;-48
2021/11/20 10:05:26;;;;;;;21.23;19.90;;;21.20;80.60;;;;;;4969526;28;20070;-58
2021/11/20 10:08:05;;;;;;;21.27;19.77;;;21.70;81.80;;;;;;4969841;28;20050;-51
2021/11/20 10:10:47;;;;;;;27.98;26.33;;;21.60;81.60;;;;;;4968301;28;20047;-48
2021/11/20 10:13:20;;;;;;;30.42;28.70;;;22.20;80.90;;;;;;4968484;28;20030;-45
2021/11/20 10:16:07;;;;;;;41.35;39.22;;;22.80;79.70;;;;;;4968485;28;20472;-48
2021/11/20 10:18:56;;;;;;;17.50;16.42;;;22.70;79.90;;;;;;4969714;28;20066;-47
2021/11/20 10:21:34;;;;;;;27.25;25.73;;;22.50;80.80;;;;;;4970354;28;20122;-50
2021/11/20 10:24:24;;;;;;;34.78;32.83;;;22.10;81.90;;;;;;4967607;28;20035;-51
2021/11/20 10:27:39;;;;;;;36.70;34.78;;;22.50;80.70;;;;;;4969781;28;20643;-51
2021/11/20 10:30:23;;;;;;;12.30;11.32;;;22.10;81.30;;;;;;4968290;28;20503;-50
2021/11/20 10:33:06;;;;;;;12.95;12.02;;;22.60;80.40;;;;;;4968061;28;20035;-50
2021/11/20 10:35:35;;;;;;;18.70;17.50;;;23.40;79.90;;;;;;4964908;28;20043;-50
2021/11/20 10:38:20;;;;;;;67.90;36.97;;;23.30;78.90;;;;;;4950040;28;20043;-49
2021/11/20 10:41:03;;;;;;;20.80;16.10;;;22.40;80.30;;;;;;4949486;28;20043;-50
2021/11/20 10:43:51;;;;;;;13.23;11.98;;;22.50;80.10;;;;;;4913154;29;20071;-50
2021/11/20 10:46:29;;;;;;;11.02;10.10;;;22.80;80.50;;;;;;4892266;29;20032;-50
2021/11/20 10:49:15;;;;;;;13.55;12.45;;;23.10;79.00;;;;;;4894083;29;20266;-51
2021/11/20 10:51:44;;;;;;;16.08;14.88;;;23.70;80.10;;;;;;4894170;29;20385;-50
2021/11/20 10:54:11;;;;;;;13.80;12.68;;;23.40;78.00;;;;;;4876272;29;20052;-49
2021/11/20 10:57:00;;;;;;;10.77;9.77;;;23.20;79.90;;;;;;4878256;29;20052;-50
2021/11/20 10:59:57;;;;;;;14.80;13.77;;;22.10;81.30;;;;;;4893553;29;20124;-50
2021/11/20 11:02:22;;;;;;;13.38;12.38;;;22.60;79.60;;;;;;4861950;29;20052;-50
2021/11/20 11:05:06;;;;;;;17.83;14.80;;;;;;;;;;4878242;29;20056;-50
2021/11/20 11:08:10;;;;;;;12.15;10.85;;;21.70;80.90;;;;;;4893241;29;20168;-50
2021/11/20 11:10:43;;;;;;;11.95;11.05;;;21.80;81.80;;;;;;4860529;29;20043;-51
2021/11/20 11:13:18;;;;;;;31.95;19.27;;;21.80;81.60;;;;;;4890376;29;20549;-50
2021/11/20 11:15:57;;;;;;;24.08;14.77;;;21.10;81.80;;;;;;4930622;29;20534;-51
2021/11/20 11:18:31;;;;;;;11.52;10.48;;;20.50;82.90;;;;;;4920254;29;20039;-50
2021/11/20 11:21:15;;;;;;;16.00;13.60;;;21.00;82.50;;;;;;4920801;29;20135;-50
2021/11/20 11:24:18;;;;;;;12.95;11.65;;;20.90;83.00;;;;;;4917474;29;20048;-50
2021/11/20 11:26:55;;;;;;;;;;;20.80;82.90;;;;;;4932477;29;20038;-52
2021/11/20 11:29:38;;;;;;;13.88;10.85;;;20.80;83.80;;;;;;4930106;29;20410;-50
2021/11/20 11:32:04;;;;;;;13.00;11.75;;;21.10;83.60;;;;;;4928293;29;20519;-50
2021/11/20 11:34:38;;;;;;;18.25;16.63;;;21.70;83.10;;;;;;4931800;29;20131;-49
2021/11/20 11:37:15;;;;;;;11.32;10.23;;;21.00;81.70;;;;;;4900610;29;20098;-50
2021/11/20 11:40:13;;;;;;;13.73;10.93;;;21.30;82.90;;;;;;4915119;29;20049;-49
2021/11/20 11:42:44;;;;;;;12.55;9.70;;;21.30;83.60;;;;;;4993983;28;20068;-51
2021/11/20 11:45:28;;;;;;;14.10;11.85;;;21.00;84.50;;;;;;4997462;28;20486;-48
2021/11/20 11:48:25;;;;;;;13.90;12.35;;;21.50;84.00;;;;;;4989977;28;20034;-49
2021/11/20 11:51:10;;;;;;;12.57;9.00;;;21.40;84.70;;;;;;4989727;28;20050;-48
2021/11/20 11:53:56;;;;;;;16.02;11.00;;;21.80;83.80;;;;;;4996262;28;20487;-49
2021/11/20 11:56:41;;;;;;;9.73;8.27;;;22.10;84.00;;;;;;4991038;28;20147;-49
2021/11/20 11:59:21;;;;;;;13.40;8.60;;;22.30;82.50;;;;;;5011713;28;20457;-49
2021/11/20 12:02:12;;;;;;;18.52;10.48;;;22.30;82.20;;;;;;5024843;28;20053;-49
2021/11/20 12:04:42;;;;;;;96.80;49.15;;;22.10;82.40;;;;;;5016549;28;20843;-49
2021/11/20 12:07:30;;;;;;;35.13;18.00;;;21.80;83.20;;;;;;5010693;28;20030;-48
2021/11/20 12:10:22;;;;;;;9.05;7.35;;;21.00;84.30;;;;;;5021807;28;20032;-49
2021/11/20 12:13:07;;;;;;;14.40;8.18;;;20.60;84.90;;;;;;5002450;28;20038;-49
2021/11/20 12:15:49;;;;;;;88.32;41.13;;;20.50;84.80;;;;;;5013287;28;20033;-49
2021/11/20 12:18:39;;;;;;;13.63;8.48;;;20.30;85.00;;;;;;5004435;28;20044;-51
2021/11/20 12:21:19;;;;;;;11.10;7.90;;;19.80;86.10;;;;;;5006036;28;20108;-50
2021/11/20 12:23:59;;;;;;;16.85;11.55;;;20.00;87.40;;;;;;5011604;28;20025;-50
2021/11/20 12:26:28;;;;;;;21.65;9.88;;;20.00;87.80;;;;;;5012875;28;20060;-50
2021/11/20 12:28:57;;;;;;;14.23;11.02;;;20.20;87.40;;;;;;4992217;28;20037;-51
2021/11/20 12:31:30;;;;;;;13.32;10.48;;;20.10;86.60;;;;;;4991901;28;20034;-50
2021/11/20 12:34:22;;;;;;;10.05;6.93;;;20.10;87.10;;;;;;4988384;28;20482;-50
2021/11/20 12:37:00;;;;;;;;;;;19.90;86.50;;;;;;4992773;28;20037;-50
2021/11/20 12:39:40;;;;;;;8.65;6.82;;;20.00;90.10;;;;;;4989959;28;20361;-49
2021/11/20 12:42:15;;;;;;;11.02;6.95;;;19.20;88.60;;;;;;4989692;28;20042;-51
2021/11/20 12:44:59;;;;;;;9.50;7.05;;;;;;;;;;4996057;28;20034;-50
2021/11/20 12:47:34;;;;;;;6.95;5.90;;;19.10;94.50;;;;;;4990545;28;20033;-49
2021/11/20 12:50:41;;;;;;;10.52;7.70;;;19.60;93.90;;;;;;4991926;28;20498;-51
2021/11/20 12:53:15;;;;;;;12.88;9.75;;;19.20;99.90;;;;;;4955747;28;20067;-51
2021/11/20 12:56:03;;;;;;;8.77;6.30;;;18.80;99.90;;;;;;4952828;28;20035;-51
2021/11/20 12:58:35;;;;;;;7.43;6.40;;;;;;;;;;4951958;28;20039;-51